Coral Canyon GC
1925 N Canyon Greens Drive, Washington
Last Weather Update:1/30/2012 11:00:00 PM
Date
ETo
ETc
Rain
Irrigation
Req
Temp
Max
Temp
Min
Temp
Avg
Avg RH
Avg Wind
Avg Solar
inches
inches
incehs
inches
F
F
F
%
%
watts/m2
12/1/2011 0.07" 0.00" 0.00" 0.00" 53.2° 39.9° 45.8° 40.4% 5.6 MPH 73.5w/m2
12/2/2011 0.05" 0.00" 0.01" -0.01" 50.3° 36.7° 42.9° 62.0% 2.8 MPH 103.3w/m2
12/3/2011 0.04" 0.00" 0.00" 0.00" 45.6° 24.1° 36.6° 61.1% 2.5 MPH 98.2w/m2
12/4/2011 0.04" 0.00" 0.00" 0.00" 46.9° 16.5° 32.2° 63.2% 1.7 MPH 128.0w/m2
12/5/2011 0.06" 0.00" 0.00" 0.00" 43.4° 15.0° 33.8° 45.6% 3.5 MPH 128.1w/m2
12/6/2011 0.04" 0.00" 0.00" 0.00" 41.0° 10.8° 24.0° 48.7% 0.1 MPH 128.5w/m2
12/7/2011 0.04" 0.00" 0.00" 0.00" 50.0° 17.3° 30.7° 50.2% 0.7 MPH 125.3w/m2
12/8/2011 0.05" 0.00" 0.00" 0.00" 52.0° 19.3° 33.7° 56.7% 1.8 MPH 127.1w/m2
12/9/2011 0.05" 0.00" 0.00" 0.00" 53.0° 21.4° 34.9° 56.0% 1.5 MPH 123.8w/m2
12/10/2011 0.05" 0.00" 0.00" 0.00" 58.0° 20.4° 36.9° 50.1% 0.5 MPH 120.8w/m2
12/11/2011 0.04" 0.00" 0.00" 0.00" 56.6° 20.9° 36.9° 51.1% 0.0 MPH 114.9w/m2
12/12/2011 0.02" 0.00" 0.25" -0.20" 47.3° 29.6° 38.8° 70.4% 0.1 MPH 30.8w/m2
12/13/2011 0.04" 0.00" 0.02" -0.02" 51.5° 28.8° 40.2° 85.5% 0.4 MPH 117.9w/m2
12/14/2011 0.04" 0.00" 0.01" -0.01" 48.0° 23.6° 34.3° 84.9% 0.0 MPH 126.1w/m2
12/15/2011 0.03" 0.00" 0.00" 0.00" 45.5° 22.4° 35.2° 70.8% 0.0 MPH 90.5w/m2
12/16/2011 0.04" 0.00" 0.00" 0.00" 48.6° 22.7° 35.5° 63.3% 0.0 MPH 120.9w/m2
12/17/2011 0.04" 0.00" 0.00" 0.00" 50.6° 20.5° 33.4° 67.9% 0.0 MPH 117.1w/m2
12/18/2011 0.02" 0.00" 0.01" -0.01" 51.9° 27.5° 36.7° 68.9% 0.0 MPH 60.7w/m2
12/19/2011 0.04" 0.00" 0.00" 0.00" 52.4° 26.9° 37.8° 67.7% 0.0 MPH 114.6w/m2
12/20/2011 0.04" 0.00" 0.00" 0.00" 48.3° 23.6° 33.9° 65.3% 0.2 MPH 117.1w/m2
12/21/2011 0.04" 0.00" 0.00" 0.00" 49.3° 19.7° 34.0° 62.1% 0.5 MPH 119.6w/m2
12/22/2011 0.04" 0.00" 0.00" 0.00" 42.3° 21.6° 33.9° 40.6% 0.0 MPH 101.5w/m2
12/23/2011 0.05" 0.00" 0.00" 0.00" 48.3° 16.6° 32.4° 38.9% 0.0 MPH 124.4w/m2
12/24/2011 0.04" 0.00" 0.00" 0.00" 53.0° 18.1° 32.5° 39.6% 0.0 MPH 122.7w/m2
12/25/2011 0.04" 0.00" 0.00" 0.00" 52.4° 17.6° 31.1° 50.8% 0.0 MPH 122.4w/m2
12/26/2011 0.04" 0.00" 0.00" 0.00" 52.8° 16.2° 30.1° 57.0% 0.0 MPH 120.7w/m2
12/27/2011 0.04" 0.00" 0.00" 0.00" 51.2° 14.5° 29.7° 59.3% 0.0 MPH 121.7w/m2
12/28/2011 0.04" 0.00" 0.00" 0.00" 52.9° 17.5° 32.0° 58.5% 0.0 MPH 107.2w/m2
12/29/2011 0.04" 0.00" 0.00" 0.00" 54.7° 22.7° 36.6° 56.3% 0.0 MPH 104.5w/m2
12/30/2011 0.04" 0.00" 0.00" 0.00" 57.7° 23.6° 39.2° 62.7% 0.0 MPH 102.6w/m2
12/31/2011 0.05" 0.00" 0.00" 0.00" 58.5° 24.5° 38.7° 60.3% 0.0 MPH 111.1w/m2
Totals: 1.29" 0.00" 0.30" -0.24" 58.5° 10.8° 35.0° 58.6% 0.7 MPH 110.5w/m2